Hovedside
METAR-TAF:

METAR-TAF

Lufthavner :

Trondheim, Norge

Trondheim lufthavn

breddegrad: 63-28N, lengdegrad: 010-56E, høyde over havet: 1 m

Gjeldene værobservasjon

Denne rapporten ble laget for 28 minutter siden, klokken 18:20 UTC
Vind 6 kt fra Sørøst
Temperatur 14°C
Luftfuktighet 58%
Trykk 1024 hPa
Sikt 10 km eller mer
ingen skyer under 1500 m og ingen bygeskyer

METAR: ENVA 221820Z 13006KT CAVOK 14/06 Q1024 NOSIG RMK WIND 670FT 17017KT

Tid: 20:48 (18:48 UTC)

Varsel

Varsel gyldig fra 22. klokken 18 UTC til 23. klokken 18 UTC
Vind 8 kt fra Øst-sørøst
Sikt 10 km eller mer
ingen skyer under 1500 m og ingen bygeskyer
Sannsynlighet 30% :
Midlertidig
fra 22. klokken 21 UTC til 23. klokken 06 UTC
Vind 15 kt fra Sør-sørøst med vindkast opp mot 25 kt

TAF: ENVA 2218/2318 12008KT CAVOK PROB30 TEMPO 2221/2306 16015G25KT

Værobservasjoner og værvarsel for over 4000 flyplasser (METAR- og TAF-rapporter).

Tilgjengelige stasjoner er representert av de røde og gule prikkene på kartet.

Hold musepekeren over prikken for å se navnet på stasjonen.

Klikk så for å se værobservasjoner og -varsler.

For å forandre kartet kan du klikke på den grønne knappen med svart kryss for å zoome inn, på den grønne knappen med strek for å zoome ut, eller på de grønne pilene for å se tilstøtende kart.


METAR-TAF: